Salina, KS

5:57 AM CDT on March 30, 2017 (GMT -0500)
Old Salina | | Change Station

Elev 1280 ft 38.84 °N, 97.61 °W | Updated 5 seconds ago

Rain
Rain
40.7 °F
Feels Like 41 °F
N
0.0
Wind Variable Wind from ESE

Today
High -- | Low -- °F
--% Chance of Precip.
Yesterday
High -- | Low -- °F
Precip. -- in
Pressure 29.66 in
Visibility 9.0 miles
Clouds Overcast 1100 ft
Windchill 41 °F
Dew Point 40 °F
Humidity 98%
Rainfall 0.49 in
Snow Depth Not available.
7:17 AM 7:52 PM
Waxing Crescent, 8% visible
METAR KSLN 301053Z AUTO 34020G29KT 9SM RA OVC011 06/04 A2965 RMK AO2 PK WND 33031/1019 SLP043 P0005 T00610044
Pressure 29.66 in
Visibility 9.0 miles
Clouds Overcast 1100 ft
Windchill 41 °F
Dew Point 40 °F
Humidity 98%
Rainfall 0.49 in
Snow Depth Not available.
7:17 AM 7:52 PM
Waxing Crescent, 8% visible
METAR KSLN 301053Z AUTO 34020G29KT 9SM RA OVC011 06/04 A2965 RMK AO2 PK WND 33031/1019 SLP043 P0005 T00610044

Get Severe Weather Alerts

Thanks for signing up!

Be on the lookout for a verification email in your inbox.

You'll start receiving the daily forecast at 8 AM.

×

10-Day Weather Forecast

Almanac

Astronomy

Mar. 30, 2017 Rise Set
Actual Time
Civil Twilight
Nautical Twilight
Astronomical Twilight
Moon
Length of Visible Light
Length of Day
Tomorrow will be .
, % of the Moon is Illuminated

Today's Extremes

State Highs State Lows

Community

WunderPhotos

Upload Photos

1,962,540 photos uploaded!

WunderBlog® & News

Nearby

Air Quality

  Air Quality AQ Index Pollutant
Not available.

Snow Depth

Station Depth Elevation

Earthquake Activity

City Distance Mag. Time & Date
Minimum magnitude displayed is 2.5.

Earthquake Activity

City Distance Mag. Time & Date
Minimum magnitude displayed is 2.5.

Coastal Water Temperatures

Place Temperature

Stations

Nearby Weather Stations

Station Location Temp. Windchill Dew Point Humidity Wind Precip. Elev Updated Type
                   

Watches & Warnings

There are currently no watches in effect.